This is the latest recevied weather packets stored in our database for station/object VA3XLC. If no packets are shown the sender has not sent any weather packets the latest 10 day(s).
| Time | Temp. | Humidity | Pressure | Rain* | Wind** | Luminosity | Snow |
|---|---|---|---|---|---|---|---|
| 1778159003 | 6.11° C | 66% | 979.9 hPa | - | - | 343 W/m² | - |
| 1778158103 | 5.56° C | 68% | 979.8 hPa | - | - | 228 W/m² | - |
| 1778157503 | 5° C | 69% | 979.9 hPa | - | - | 216 W/m² | - |
| 1778156002 | 4.44° C | 71% | 979.9 hPa | - | - | 146 W/m² | - |
| 1778151437 | 2.22° C | 73% | 979.5 hPa | - | - | 73 W/m² | - |
| 1778149294 | 1.67° C | 76% | 979.5 hPa | - | - | 9 W/m² | - |
| 1778148993 | 1.67° C | 75% | 979.5 hPa | - | - | 5 W/m² | - |
| 1778145649 | 2.22° C | 75% | 979.5 hPa | - | - | 0 W/m² | - |
| 1778143226 | 3.33° C | 73% | 979.7 hPa | - | - | 0 W/m² | - |
| 1778142605 | 3.89° C | 73% | 979.8 hPa | - | - | 0 W/m² | - |
| 1778141984 | 3.89° C | 73% | 979.6 hPa | - | - | 0 W/m² | - |
| 1778139540 | 5° C | 73% | 979.7 hPa | - | - | 0 W/m² | - |
| 1778136236 | 5.56° C | 70% | 979.7 hPa | - | - | 0 W/m² | - |
| 1778135635 | 5.56° C | 70% | 979.7 hPa | - | - | 0 W/m² | - |
| 1778134714 | 5.56° C | 70% | 979.5 hPa | - | - | 0 W/m² | - |
| 1778130469 | 5.56° C | 67% | 979.9 hPa | - | - | 0 W/m² | - |
| 1778125921 | 5.56° C | 67% | 980.2 hPa | - | - | 0 W/m² | - |
| 1778120708 | 5° C | 65% | 980.3 hPa | - | - | 0 W/m² | - |
| 1778115176 | 6.67° C | 52% | 980.3 hPa | - | - | 0 W/m² | - |
| 1778113975 | 7.22° C | 49% | 980.1 hPa | - | - | 3 W/m² | - |
| 1778110308 | 8.33° C | 42% | 979.8 hPa | - | - | 49 W/m² | - |
| 1778107821 | 9.44° C | 38% | 979.8 hPa | - | - | 175 W/m² | - |
| 1778103897 | 8.89° C | 39% | 979.5 hPa | - | - | 255 W/m² | - |
| 1778103597 | 9.44° C | 38% | 979.5 hPa | - | - | 216 W/m² | - |
| 1778101152 | 8.89° C | 43% | 979.3 hPa | - | - | 294 W/m² | - |
* Rain since midnight (hover to see other rain measurements)
** Current wind speed in m/s (hover to see current wind gust speed)